createdAt,value
2022-12-15T00:00:00.508Z,0.045
2022-12-15T00:01:00.969Z,0.045
2022-12-15T00:02:00.551Z,0.045
2022-12-15T00:03:00.715Z,0.045
2022-12-15T00:04:00.503Z,0.045
2022-12-15T00:05:00.484Z,0.045
2022-12-15T00:06:00.586Z,0.045
2022-12-15T00:07:00.802Z,0.045
2022-12-15T00:08:00.524Z,0.045
2022-12-15T00:09:00.549Z,0.045
2022-12-15T00:10:00.488Z,0.045
2022-12-15T00:11:00.690Z,0.045
2022-12-15T00:12:00.429Z,0.045
2022-12-15T00:13:00.736Z,0.045
2022-12-15T00:14:00.485Z,0.045
2022-12-15T00:15:00.450Z,0.045
2022-12-15T00:16:00.556Z,0.045
2022-12-15T00:17:00.446Z,0.045
2022-12-15T00:18:00.485Z,0.045
2022-12-15T00:19:00.664Z,0.045
2022-12-15T00:20:00.454Z,0.045
2022-12-15T00:21:00.480Z,0.045
2022-12-15T00:22:00.422Z,0.045
2022-12-15T00:23:00.452Z,0.045
2022-12-15T00:24:00.490Z,0.045
2022-12-15T00:25:00.566Z,0.045
2022-12-15T00:26:00.500Z,0.045
2022-12-15T00:27:00.454Z,0.045
2022-12-15T00:28:00.456Z,0.045
2022-12-15T00:29:00.475Z,0.045
2022-12-15T00:30:00.483Z,0.045
2022-12-15T00:31:02.323Z,0.045
2022-12-15T00:32:00.574Z,0.045
2022-12-15T00:33:00.447Z,0.045
2022-12-15T00:34:00.459Z,0.045
2022-12-15T00:35:00.474Z,0.045
2022-12-15T00:36:00.459Z,0.045
2022-12-15T00:37:00.669Z,0.045
2022-12-15T00:38:00.533Z,0.045
2022-12-15T00:39:03.520Z,0.045
2022-12-15T00:40:00.470Z,0.045
2022-12-15T00:41:00.611Z,0.045
2022-12-15T00:42:00.615Z,0.045
2022-12-15T00:43:00.644Z,0.045
2022-12-15T00:44:00.469Z,0.045
2022-12-15T00:45:00.540Z,0.045
2022-12-15T00:46:00.500Z,0.045
2022-12-15T00:47:00.567Z,0.045
2022-12-15T00:48:00.512Z,0.045
2022-12-15T00:49:00.617Z,0.045
2022-12-15T00:50:00.427Z,0.045
2022-12-15T00:51:00.476Z,0.045
2022-12-15T00:52:00.423Z,0.045
2022-12-15T00:53:00.451Z,0.045
2022-12-15T00:54:00.451Z,0.045
2022-12-15T00:55:00.547Z,0.045
2022-12-15T00:56:00.487Z,0.045
2022-12-15T00:57:00.504Z,0.045
2022-12-15T00:58:00.472Z,0.045
2022-12-15T00:59:00.442Z,0.045
2022-12-15T01:00:00.451Z,0.045
2022-12-15T01:01:00.580Z,0.045
2022-12-15T01:02:00.659Z,0.045
2022-12-15T01:03:00.729Z,0.045
2022-12-15T01:04:00.548Z,0.045
2022-12-15T01:05:00.507Z,0.045
2022-12-15T01:06:00.456Z,0.045
2022-12-15T01:07:00.669Z,0.045
2022-12-15T01:08:00.457Z,0.045
2022-12-15T01:09:00.484Z,0.045
2022-12-15T01:10:00.491Z,0.045
2022-12-15T01:11:00.454Z,0.045
2022-12-15T01:12:00.593Z,0.045
2022-12-15T01:13:00.769Z,0.045
2022-12-15T01:14:00.451Z,0.045
2022-12-15T01:15:00.450Z,0.045
2022-12-15T01:16:00.528Z,0.045
2022-12-15T01:17:00.452Z,0.045
2022-12-15T01:18:00.478Z,0.045
2022-12-15T01:19:00.561Z,0.045
2022-12-15T01:20:00.447Z,0.045
2022-12-15T01:21:00.479Z,0.045
2022-12-15T01:22:00.529Z,0.045
2022-12-15T01:23:00.456Z,0.045
2022-12-15T01:24:00.447Z,0.045
2022-12-15T01:25:00.718Z,0.045
2022-12-15T01:26:00.472Z,0.045
2022-12-15T01:27:00.573Z,0.045
2022-12-15T01:28:00.424Z,0.045
2022-12-15T01:29:00.465Z,0.045
2022-12-15T01:30:00.834Z,0.045
2022-12-15T01:31:00.698Z,0.045
2022-12-15T01:32:00.499Z,0.045
2022-12-15T01:33:00.899Z,0.045
2022-12-15T01:34:00.983Z,0.045
2022-12-15T01:35:00.670Z,0.045
2022-12-15T01:36:00.482Z,0.045
2022-12-15T01:37:00.609Z,0.045
2022-12-15T01:38:00.942Z,0.045
2022-12-15T01:39:00.464Z,0.045
2022-12-15T01:40:00.512Z,0.045
2022-12-15T01:41:00.467Z,0.045
2022-12-15T01:42:00.518Z,0.045
2022-12-15T01:43:00.648Z,0.045
2022-12-15T01:44:00.478Z,0.045
2022-12-15T01:45:00.483Z,0.045
2022-12-15T01:46:00.446Z,0.045
2022-12-15T01:47:00.537Z,0.045
2022-12-15T01:48:00.482Z,0.045
2022-12-15T01:49:00.569Z,0.045
2022-12-15T01:50:00.445Z,0.045
2022-12-15T01:51:00.482Z,0.045
2022-12-15T01:52:00.494Z,0.045
2022-12-15T01:53:00.488Z,0.045
2022-12-15T01:54:00.450Z,0.045
2022-12-15T01:55:00.695Z,0.045
2022-12-15T01:56:00.448Z,0.045
2022-12-15T01:57:00.706Z,0.045
2022-12-15T01:58:00.481Z,0.045
2022-12-15T01:59:00.454Z,0.045
2022-12-15T02:00:00.448Z,0.045
2022-12-15T02:01:00.647Z,0.045
2022-12-15T02:02:00.687Z,0.045
2022-12-15T02:03:00.614Z,0.045
2022-12-15T02:04:00.474Z,0.045
2022-12-15T02:05:00.447Z,0.045
2022-12-15T02:06:00.423Z,0.045
2022-12-15T02:07:00.578Z,0.045
2022-12-15T02:08:00.428Z,0.045
2022-12-15T02:09:00.447Z,0.045
2022-12-15T02:10:00.426Z,0.045
2022-12-15T02:11:00.455Z,0.045
2022-12-15T02:12:00.616Z,0.045
2022-12-15T02:13:00.789Z,0.045
2022-12-15T02:14:00.454Z,0.045
2022-12-15T02:15:00.446Z,0.045
2022-12-15T02:16:00.496Z,0.045
2022-12-15T02:17:00.483Z,0.045
2022-12-15T02:18:00.469Z,0.045
2022-12-15T02:19:00.602Z,0.045
2022-12-15T02:20:00.525Z,0.045
2022-12-15T02:21:00.455Z,0.045
2022-12-15T02:22:00.447Z,0.045
2022-12-15T02:23:00.433Z,0.045
2022-12-15T02:24:00.420Z,0.045
2022-12-15T02:25:00.567Z,0.045
2022-12-15T02:26:00.455Z,0.045
2022-12-15T02:27:00.479Z,0.045
2022-12-15T02:28:00.480Z,0.045
2022-12-15T02:29:00.445Z,0.045
2022-12-15T02:30:00.452Z,0.045
2022-12-15T02:31:00.663Z,0.045
2022-12-15T02:32:00.582Z,0.045
2022-12-15T02:33:00.486Z,0.045
2022-12-15T02:34:00.564Z,0.045
2022-12-15T02:35:00.506Z,0.045
2022-12-15T02:36:00.509Z,0.045
2022-12-15T02:37:00.578Z,0.045
2022-12-15T02:38:00.452Z,0.045
2022-12-15T02:39:00.463Z,0.045
2022-12-15T02:40:00.493Z,0.045
2022-12-15T02:41:00.454Z,0.045
2022-12-15T02:42:00.610Z,0.045
2022-12-15T02:43:00.671Z,0.045
2022-12-15T02:44:00.512Z,0.045
2022-12-15T02:45:00.458Z,0.045
2022-12-15T02:46:00.538Z,0.045
2022-12-15T02:47:00.525Z,0.045
2022-12-15T02:48:00.425Z,0.045
2022-12-15T02:49:00.543Z,0.045
2022-12-15T02:50:00.423Z,0.045
2022-12-15T02:51:00.436Z,0.045
2022-12-15T02:52:00.481Z,0.045
2022-12-15T02:53:00.513Z,0.045
2022-12-15T02:54:00.483Z,0.045
2022-12-15T02:55:00.566Z,0.045
2022-12-15T02:56:00.438Z,0.045
2022-12-15T02:57:00.487Z,0.045
2022-12-15T02:58:00.503Z,0.045
2022-12-15T02:59:00.446Z,0.045
2022-12-15T03:00:00.447Z,0.045
2022-12-15T03:01:00.635Z,0.045
2022-12-15T03:02:00.653Z,0.045
2022-12-15T03:03:00.657Z,0.045
2022-12-15T03:04:00.454Z,0.045
2022-12-15T03:05:00.452Z,0.045
2022-12-15T03:06:00.484Z,0.045
2022-12-15T03:07:01.414Z,0.045
2022-12-15T03:08:00.447Z,0.045
2022-12-15T03:09:00.419Z,0.045
2022-12-15T03:10:00.481Z,0.045
2022-12-15T03:11:00.449Z,0.045
2022-12-15T03:12:00.480Z,0.045
2022-12-15T03:13:00.740Z,0.045
2022-12-15T03:14:00.453Z,0.045
2022-12-15T03:15:00.457Z,0.045
2022-12-15T03:16:00.567Z,0.045
2022-12-15T03:17:00.491Z,0.045
2022-12-15T03:18:00.470Z,0.045
2022-12-15T03:19:00.615Z,0.045
2022-12-15T03:20:00.515Z,0.045
2022-12-15T03:21:00.491Z,0.045
2022-12-15T03:22:00.426Z,0.045
2022-12-15T03:23:00.479Z,0.045
2022-12-15T03:24:00.450Z,0.045
2022-12-15T03:25:00.568Z,0.045
2022-12-15T03:26:00.450Z,0.045
2022-12-15T03:27:00.435Z,0.045
2022-12-15T03:28:00.610Z,0.090
2022-12-15T03:29:00.454Z,0.045
2022-12-15T03:30:00.487Z,0.045
2022-12-15T03:31:00.661Z,0.045
2022-12-15T03:32:00.548Z,0.045
2022-12-15T03:33:00.417Z,0.045
2022-12-15T03:34:00.455Z,0.090
2022-12-15T03:35:00.500Z,0.045
2022-12-15T03:36:00.452Z,0.090
2022-12-15T03:37:00.598Z,0.090
2022-12-15T03:38:00.454Z,0.090
2022-12-15T03:39:00.439Z,0.090
2022-12-15T03:40:00.457Z,0.090
2022-12-15T03:41:00.482Z,0.090
2022-12-15T03:42:00.485Z,0.135
2022-12-15T03:43:00.563Z,0.135
2022-12-15T03:44:00.611Z,0.135
2022-12-15T03:45:00.457Z,0.180
2022-12-15T03:46:00.595Z,0.180
2022-12-15T03:47:03.462Z,0.180
2022-12-15T03:48:00.516Z,0.180
2022-12-15T03:49:00.644Z,0.270
2022-12-15T03:50:00.513Z,0.315
2022-12-15T03:51:00.442Z,0.360
2022-12-15T03:52:00.477Z,0.405
2022-12-15T03:53:00.508Z,0.450
2022-12-15T03:54:00.431Z,0.540
2022-12-15T03:55:00.589Z,0.630
2022-12-15T03:56:00.476Z,0.720
2022-12-15T03:57:00.422Z,0.900
2022-12-15T03:58:00.456Z,1.125
2022-12-15T03:59:00.524Z,1.350
2022-12-15T04:00:00.555Z,1.575
2022-12-15T04:01:00.744Z,1.935
2022-12-15T04:02:00.711Z,2.340
2022-12-15T04:03:00.538Z,2.835
2022-12-15T04:04:01.564Z,3.375
2022-12-15T04:05:00.476Z,4.005
2022-12-15T04:06:00.449Z,4.680
2022-12-15T04:07:00.582Z,5.400
2022-12-15T04:08:00.420Z,6.210
2022-12-15T04:09:00.474Z,7.065
2022-12-15T04:10:00.446Z,7.965
2022-12-15T04:11:00.419Z,9.090
2022-12-15T04:12:00.424Z,10.260
2022-12-15T04:13:00.559Z,11.475
2022-12-15T04:14:00.462Z,12.780
2022-12-15T04:15:00.587Z,14.400
2022-12-15T04:16:00.425Z,16.110
2022-12-15T04:17:00.506Z,18.180
2022-12-15T04:18:00.424Z,20.340
2022-12-15T04:19:00.567Z,22.770
2022-12-15T04:20:00.451Z,25.380
2022-12-15T04:21:00.419Z,28.620
2022-12-15T04:22:00.457Z,31.860
2022-12-15T04:23:00.487Z,35.820
2022-12-15T04:24:00.454Z,39.960
2022-12-15T04:25:00.566Z,44.100
2022-12-15T04:26:00.429Z,48.960
2022-12-15T04:27:00.502Z,54.360
2022-12-15T04:28:01.815Z,60.120
2022-12-15T04:29:00.451Z,65.520
2022-12-15T04:30:00.557Z,71.280
2022-12-15T04:31:00.604Z,78.120
2022-12-15T04:32:00.498Z,85.320
2022-12-15T04:33:00.486Z,92.880
2022-12-15T04:34:00.460Z,99.360
2022-12-15T04:35:00.507Z,105.840
2022-12-15T04:36:00.516Z,112.320
2022-12-15T04:37:00.754Z,118.080
2022-12-15T04:38:00.463Z,123.120
2022-12-15T04:39:00.509Z,127.440
2022-12-15T04:40:00.535Z,131.040
2022-12-15T04:41:00.503Z,135.360
2022-12-15T04:42:00.496Z,136.080
2022-12-15T04:43:00.644Z,136.080
2022-12-15T04:44:00.475Z,138.240
2022-12-15T04:45:00.655Z,142.560
2022-12-15T04:46:00.506Z,149.040
2022-12-15T04:47:00.430Z,155.520
2022-12-15T04:48:00.427Z,161.280
2022-12-15T04:49:00.740Z,165.600
2022-12-15T04:50:00.450Z,168.480
2022-12-15T04:51:00.452Z,172.080
2022-12-15T04:52:00.429Z,174.960
2022-12-15T04:53:00.422Z,179.280
2022-12-15T04:54:00.454Z,184.320
2022-12-15T04:55:00.582Z,191.520
2022-12-15T04:56:00.459Z,198.720
2022-12-15T04:57:00.425Z,207.360
2022-12-15T04:58:00.428Z,217.440
2022-12-15T04:59:00.581Z,226.080
2022-12-15T05:00:00.545Z,233.280
2022-12-15T05:01:00.733Z,240.480
2022-12-15T05:02:00.645Z,247.680
2022-12-15T05:03:00.456Z,252.000
2022-12-15T05:04:00.492Z,252.000
2022-12-15T05:05:00.456Z,250.560
2022-12-15T05:06:00.455Z,247.680
2022-12-15T05:07:00.685Z,247.680
2022-12-15T05:08:00.422Z,247.680
2022-12-15T05:09:00.485Z,249.120
2022-12-15T05:10:03.232Z,250.560
2022-12-15T05:11:00.424Z,249.120
2022-12-15T05:12:00.467Z,246.240
2022-12-15T05:13:00.655Z,244.800
2022-12-15T05:14:00.448Z,246.240
2022-12-15T05:15:00.561Z,252.000
2022-12-15T05:16:00.632Z,259.200
2022-12-15T05:17:00.469Z,270.720
2022-12-15T05:18:00.455Z,280.800
2022-12-15T05:19:00.638Z,289.440
2022-12-15T05:20:00.483Z,298.080
2022-12-15T05:21:00.528Z,305.280
2022-12-15T05:22:00.479Z,313.920
2022-12-15T05:23:00.497Z,322.560
2022-12-15T05:24:00.443Z,328.320
2022-12-15T05:25:00.603Z,332.640
2022-12-15T05:26:00.482Z,334.080
2022-12-15T05:27:00.451Z,334.080
2022-12-15T05:28:00.478Z,335.520
2022-12-15T05:29:00.428Z,339.840
2022-12-15T05:30:00.650Z,348.480
2022-12-15T05:31:00.591Z,362.880
2022-12-15T05:32:00.460Z,383.040
2022-12-15T05:33:00.482Z,406.080
2022-12-15T05:34:05.083Z,432.000
2022-12-15T05:35:00.446Z,460.800
2022-12-15T05:36:00.425Z,486.720
2022-12-15T05:37:00.583Z,515.520
2022-12-15T05:38:00.478Z,544.320
2022-12-15T05:39:00.448Z,573.120
2022-12-15T05:40:00.484Z,601.920
2022-12-15T05:41:00.481Z,627.840
2022-12-15T05:42:00.488Z,648.000
2022-12-15T05:43:00.615Z,671.040
2022-12-15T05:44:00.437Z,685.440
2022-12-15T05:45:00.575Z,691.200
2022-12-15T05:46:00.525Z,694.080
2022-12-15T05:47:00.457Z,702.720
2022-12-15T05:48:00.467Z,714.240
2022-12-15T05:49:00.545Z,725.760
2022-12-15T05:50:00.467Z,731.520
2022-12-15T05:51:00.478Z,728.640
2022-12-15T05:52:00.423Z,717.120
2022-12-15T05:53:00.481Z,708.480
2022-12-15T05:54:00.440Z,699.840
2022-12-15T05:55:00.588Z,688.320
2022-12-15T05:56:00.449Z,679.680
2022-12-15T05:57:00.461Z,668.160
2022-12-15T05:58:00.449Z,656.640
2022-12-15T05:59:00.424Z,645.120
2022-12-15T06:00:00.654Z,636.480
2022-12-15T06:01:00.748Z,633.600
2022-12-15T06:02:00.561Z,636.480
2022-12-15T06:03:00.601Z,642.240
2022-12-15T06:04:00.498Z,650.880
2022-12-15T06:05:00.686Z,659.520
2022-12-15T06:06:00.449Z,662.400
2022-12-15T06:07:00.789Z,668.160
2022-12-15T06:08:00.496Z,676.800
2022-12-15T06:09:00.505Z,688.320
2022-12-15T06:10:00.448Z,705.600
2022-12-15T06:11:00.455Z,725.760
2022-12-15T06:12:00.424Z,754.560
2022-12-15T06:13:00.639Z,789.120
2022-12-15T06:14:00.481Z,829.440
2022-12-15T06:15:00.455Z,875.520
2022-12-15T06:16:00.714Z,927.360
2022-12-15T06:17:00.544Z,984.960
2022-12-15T06:18:00.455Z,1105.920
2022-12-15T06:19:00.707Z,1163.520
2022-12-15T06:20:00.419Z,1232.640
2022-12-15T06:21:00.422Z,1301.760
2022-12-15T06:22:00.432Z,1370.880
2022-12-15T06:23:00.460Z,1451.520
2022-12-15T06:24:00.452Z,1532.160
2022-12-15T06:25:00.590Z,1589.760
2022-12-15T06:26:00.425Z,1635.840
2022-12-15T06:27:00.449Z,1647.360
2022-12-15T06:28:01.983Z,1612.800
2022-12-15T06:29:00.431Z,1566.720
2022-12-15T06:30:00.482Z,1520.640
2022-12-15T06:31:00.680Z,1497.600
2022-12-15T06:32:00.436Z,1468.800
2022-12-15T06:33:00.463Z,1405.440
2022-12-15T06:34:02.273Z,1319.040
2022-12-15T06:35:00.451Z,1232.640
2022-12-15T06:36:00.474Z,1180.800
2022-12-15T06:37:00.589Z,1152.000
2022-12-15T06:38:00.487Z,1134.720
2022-12-15T06:39:00.556Z,1134.720
2022-12-15T06:40:00.485Z,1123.200
2022-12-15T06:41:00.490Z,1123.200
2022-12-15T06:42:00.529Z,1128.960
2022-12-15T06:43:00.687Z,1152.000
2022-12-15T06:44:00.536Z,1180.800
2022-12-15T06:45:00.533Z,1203.840
2022-12-15T06:46:00.588Z,1221.120
2022-12-15T06:47:00.601Z,1244.160
2022-12-15T06:48:01.764Z,1261.440
2022-12-15T06:49:00.696Z,1284.480
2022-12-15T06:50:00.449Z,1307.520
2022-12-15T06:51:00.552Z,1342.080
2022-12-15T06:52:00.480Z,1376.640
2022-12-15T06:53:00.426Z,1405.440
2022-12-15T06:54:00.420Z,1428.480
2022-12-15T06:55:00.715Z,1451.520
2022-12-15T06:56:00.425Z,1463.040
2022-12-15T06:57:00.434Z,1463.040
2022-12-15T06:58:00.455Z,1468.800
2022-12-15T06:59:00.454Z,1486.080
2022-12-15T07:00:00.418Z,1520.640
2022-12-15T07:01:00.614Z,1555.200
2022-12-15T07:02:00.681Z,1601.280
2022-12-15T07:03:00.679Z,1624.320
2022-12-15T07:04:00.722Z,1670.400
2022-12-15T07:05:00.486Z,1739.520
2022-12-15T07:06:00.452Z,1797.120
2022-12-15T07:07:00.661Z,1866.240
2022-12-15T07:08:00.459Z,1935.360
2022-12-15T07:09:00.473Z,2004.480
2022-12-15T07:10:00.489Z,2062.080
2022-12-15T07:11:00.465Z,2119.680
2022-12-15T07:12:00.484Z,2119.680
2022-12-15T07:13:00.680Z,2096.640
2022-12-15T07:14:00.421Z,2096.640
2022-12-15T07:15:00.485Z,2142.720
2022-12-15T07:16:00.682Z,2142.720
2022-12-15T07:17:00.609Z,2350.080
2022-12-15T07:18:00.450Z,2200.320
2022-12-15T07:19:00.559Z,2177.280
2022-12-15T07:20:00.488Z,2096.640
2022-12-15T07:21:00.484Z,2062.080
2022-12-15T07:22:00.503Z,1992.960
2022-12-15T07:23:00.454Z,1877.760
2022-12-15T07:24:01.488Z,1762.560
2022-12-15T07:25:00.634Z,1647.360
2022-12-15T07:26:00.506Z,1543.680
2022-12-15T07:27:00.460Z,1468.800
2022-12-15T07:28:00.546Z,1411.200
2022-12-15T07:29:00.506Z,1365.120
2022-12-15T07:30:00.545Z,1342.080
2022-12-15T07:31:00.821Z,1342.080
2022-12-15T07:32:00.705Z,1342.080
2022-12-15T07:33:00.422Z,1342.080
2022-12-15T07:34:00.424Z,1336.320
2022-12-15T07:35:00.483Z,1342.080
2022-12-15T07:36:00.413Z,1365.120
2022-12-15T07:37:00.625Z,1405.440
2022-12-15T07:38:00.479Z,1468.800
2022-12-15T07:39:00.488Z,1543.680
2022-12-15T07:40:00.445Z,1647.360
2022-12-15T07:41:00.426Z,1762.560
2022-12-15T07:42:00.471Z,1889.280
2022-12-15T07:43:00.745Z,2027.520
2022-12-15T07:44:00.418Z,2154.240
2022-12-15T07:45:00.445Z,2269.440
2022-12-15T07:46:00.542Z,2361.600
2022-12-15T07:47:00.547Z,2430.720
2022-12-15T07:48:00.534Z,2442.240
2022-12-15T07:49:00.588Z,2407.680
2022-12-15T07:50:00.474Z,2361.600
2022-12-15T07:51:08.290Z,2315.520
2022-12-15T07:52:00.427Z,2315.520
2022-12-15T07:53:00.464Z,2327.040
2022-12-15T07:54:00.452Z,2384.640
2022-12-15T07:55:00.607Z,2407.680
2022-12-15T07:56:07.416Z,2407.680
2022-12-15T07:57:00.450Z,2361.600
2022-12-15T07:58:00.484Z,2327.040
2022-12-15T07:59:00.455Z,2304.000
2022-12-15T08:00:00.432Z,2280.960
2022-12-15T08:01:00.743Z,2211.840
2022-12-15T08:02:00.671Z,2131.200
2022-12-15T08:03:00.712Z,2050.560
2022-12-15T08:04:00.501Z,2004.480
2022-12-15T08:05:00.506Z,1981.440
2022-12-15T08:06:04.002Z,1969.920
2022-12-15T08:07:00.650Z,1946.880
2022-12-15T08:08:00.495Z,1923.840
2022-12-15T08:09:00.502Z,1912.320
2022-12-15T08:10:00.527Z,1900.800
2022-12-15T08:11:00.779Z,1889.280
2022-12-15T08:12:00.464Z,1831.680
2022-12-15T08:13:00.663Z,1751.040
2022-12-15T08:14:03.433Z,1693.440
2022-12-15T08:15:00.465Z,1658.880
2022-12-15T08:16:00.616Z,1670.400
2022-12-15T08:17:00.625Z,1670.400
2022-12-15T08:18:00.615Z,1693.440
2022-12-15T08:19:00.794Z,1693.440
2022-12-15T08:20:04.788Z,1681.920
2022-12-15T08:21:00.458Z,1647.360
2022-12-15T08:22:00.427Z,1612.800
2022-12-15T08:23:00.454Z,1566.720
2022-12-15T08:24:00.419Z,1509.120
2022-12-15T08:25:00.749Z,1474.560
2022-12-15T08:26:00.416Z,1434.240
2022-12-15T08:27:00.468Z,1399.680
2022-12-15T08:28:00.463Z,1370.880
2022-12-15T08:29:17.248Z,1342.080
2022-12-15T08:30:00.479Z,1319.040
2022-12-15T08:31:00.638Z,1313.280
2022-12-15T08:32:00.540Z,1313.280
2022-12-15T08:33:00.704Z,1324.800
2022-12-15T08:34:00.881Z,1336.320
2022-12-15T08:35:00.423Z,1347.840
2022-12-15T08:36:00.446Z,1365.120
2022-12-15T08:37:00.551Z,1382.400
2022-12-15T08:38:05.226Z,1399.680
2022-12-15T08:39:00.427Z,1422.720
2022-12-15T08:40:00.478Z,1451.520
2022-12-15T08:41:00.456Z,1497.600
2022-12-15T08:42:00.454Z,1566.720
2022-12-15T08:43:00.646Z,1681.920
2022-12-15T08:44:00.465Z,1831.680
2022-12-15T08:45:00.416Z,2004.480
2022-12-15T08:46:00.553Z,2234.880
2022-12-15T08:47:00.474Z,2488.320
2022-12-15T08:48:00.448Z,2753.280
2022-12-15T08:49:00.648Z,3018.240
2022-12-15T08:50:00.533Z,3271.680
2022-12-15T08:51:00.479Z,3617.280
2022-12-15T08:52:00.450Z,3502.080
2022-12-15T08:53:29.627Z,3502.080
2022-12-15T08:54:00.455Z,3571.200
2022-12-15T08:55:00.604Z,3686.400
2022-12-15T08:56:00.513Z,3962.880
2022-12-15T08:57:00.532Z,4538.880
2022-12-15T08:58:00.501Z,7096.320
2022-12-15T08:59:00.503Z,6266.880
2022-12-15T09:00:00.445Z,6543.360
2022-12-15T09:01:00.716Z,6773.760
2022-12-15T09:02:00.624Z,7787.520
2022-12-15T09:03:00.465Z,7372.800
2022-12-15T09:04:00.677Z,8755.200
2022-12-15T09:05:00.448Z,10690.560
2022-12-15T09:06:00.415Z,6036.480
2022-12-15T09:07:00.681Z,5483.520
2022-12-15T09:08:06.197Z,5483.520
2022-12-15T09:09:00.414Z,5690.880
2022-12-15T09:10:00.420Z,6727.680
2022-12-15T09:11:00.448Z,7603.200
2022-12-15T09:12:00.489Z,9953.280
2022-12-15T09:13:00.596Z,9262.080
2022-12-15T09:14:00.478Z,7096.320
2022-12-15T09:15:00.477Z,9262.080
2022-12-15T09:16:09.282Z,8386.560
2022-12-15T09:17:00.472Z,14469.120
2022-12-15T09:18:00.454Z,15114.240
2022-12-15T09:19:00.583Z,9722.880
2022-12-15T09:20:00.442Z,14469.120
2022-12-15T09:21:00.479Z,13731.840
2022-12-15T09:22:00.799Z,7096.320
2022-12-15T09:23:00.931Z,5829.120
2022-12-15T09:24:00.777Z,5713.920
2022-12-15T09:25:00.791Z,6128.640
2022-12-15T09:26:00.526Z,6727.680
2022-12-15T09:27:00.620Z,12257.280
2022-12-15T09:28:00.442Z,11750.400
2022-12-15T09:30:00.889Z,7464.960
2022-12-15T09:31:00.813Z,6635.520
2022-12-15T09:32:00.731Z,7418.880
2022-12-15T09:33:00.689Z,9354.240
2022-12-15T09:34:00.919Z,7695.360
2022-12-15T09:35:00.727Z,4055.040
2022-12-15T09:36:00.896Z,3801.600
2022-12-15T09:37:00.719Z,3617.280
2022-12-15T09:38:00.740Z,3432.960
2022-12-15T09:39:00.791Z,3248.640
2022-12-15T09:40:00.817Z,3087.360
2022-12-15T09:41:00.711Z,2995.200
2022-12-15T09:42:00.891Z,2949.120
2022-12-15T09:43:33.022Z,2995.200
2022-12-15T09:44:00.689Z,3041.280
2022-12-15T09:45:00.746Z,3202.560
2022-12-15T09:46:00.801Z,3340.800
2022-12-15T09:47:00.715Z,3133.440
2022-12-15T09:48:00.822Z,3087.360
2022-12-15T09:49:00.870Z,3041.280
2022-12-15T09:50:00.740Z,2972.160
2022-12-15T09:51:00.720Z,2972.160
2022-12-15T09:52:01.068Z,3041.280
2022-12-15T09:53:00.800Z,3156.480
2022-12-15T09:54:01.502Z,3225.600
2022-12-15T09:55:00.766Z,3294.720
2022-12-15T09:56:00.716Z,3363.840
2022-12-15T09:57:00.704Z,3386.880
2022-12-15T09:58:01.465Z,3386.880
2022-12-15T09:59:00.693Z,3317.760
2022-12-15T10:00:00.911Z,3179.520
2022-12-15T10:01:00.702Z,3018.240
2022-12-15T10:02:00.811Z,2868.480
2022-12-15T10:03:01.019Z,2776.320
2022-12-15T10:04:01.058Z,2718.720
2022-12-15T10:05:01.007Z,2695.680
2022-12-15T10:06:17.119Z,2672.640
2022-12-15T10:07:00.732Z,2638.080
2022-12-15T10:08:00.728Z,2568.960
2022-12-15T10:09:00.822Z,2465.280
2022-12-15T10:10:00.813Z,2327.040
2022-12-15T10:11:00.743Z,2223.360
2022-12-15T10:12:00.907Z,2142.720
2022-12-15T10:13:02.498Z,2085.120
2022-12-15T10:14:00.790Z,2050.560
2022-12-15T10:15:00.738Z,2016.000
2022-12-15T10:16:00.800Z,1969.920
2022-12-15T10:17:00.735Z,1935.360
2022-12-15T10:18:00.889Z,1900.800
2022-12-15T10:19:01.889Z,1889.280
2022-12-15T10:20:00.862Z,1889.280
2022-12-15T10:21:00.721Z,1900.800
2022-12-15T10:22:00.713Z,1923.840
2022-12-15T10:23:00.685Z,1958.400
2022-12-15T10:24:01.008Z,2016.000
2022-12-15T10:25:09.649Z,2073.600
2022-12-15T10:26:00.688Z,2142.720
2022-12-15T10:27:00.712Z,2200.320
2022-12-15T10:28:00.743Z,2234.880
2022-12-15T10:29:00.688Z,2246.400
2022-12-15T10:30:01.030Z,2246.400
2022-12-15T10:31:00.863Z,2246.400
2022-12-15T10:32:00.779Z,2234.880
2022-12-15T10:33:00.838Z,2223.360
2022-12-15T10:34:00.839Z,2188.800
2022-12-15T10:35:01.000Z,2165.760
2022-12-15T10:36:00.877Z,2165.760
2022-12-15T10:37:00.803Z,2211.840
2022-12-15T10:38:00.728Z,2304.000
2022-12-15T10:39:00.723Z,2476.800
2022-12-15T10:40:00.746Z,2603.520
2022-12-15T10:41:00.748Z,2776.320
2022-12-15T10:42:00.840Z,3156.480
2022-12-15T10:43:00.718Z,3893.760
2022-12-15T10:44:00.722Z,2856.960
2022-12-15T10:45:00.716Z,2926.080
2022-12-15T10:46:00.762Z,2949.120
2022-12-15T10:47:00.689Z,3041.280
2022-12-15T10:48:00.887Z,3064.320
2022-12-15T10:49:00.722Z,3064.320
2022-12-15T10:50:00.797Z,3133.440
2022-12-15T10:51:00.737Z,2995.200
2022-12-15T10:52:00.780Z,2914.560
2022-12-15T10:53:00.791Z,2903.040
2022-12-15T10:54:00.891Z,2845.440
2022-12-15T10:55:00.708Z,3133.440
2022-12-15T10:56:00.791Z,10598.400
2022-12-15T10:57:00.736Z,10967.040
2022-12-15T10:58:00.777Z,17786.881
2022-12-15T10:59:00.796Z,15667.200
2022-12-15T11:00:00.952Z,13178.880
2022-12-15T11:01:00.749Z,5690.880
2022-12-15T11:02:00.915Z,3870.720
2022-12-15T11:03:01.025Z,3271.680
2022-12-15T11:04:01.009Z,2891.520
2022-12-15T11:05:00.823Z,2545.920
2022-12-15T11:06:00.992Z,2246.400
2022-12-15T11:07:00.743Z,2004.480
2022-12-15T11:08:00.694Z,1808.640
2022-12-15T11:09:00.687Z,1635.840
2022-12-15T11:10:00.720Z,1486.080
2022-12-15T11:11:00.748Z,1370.880
2022-12-15T11:12:00.819Z,1255.680
2022-12-15T11:13:00.726Z,1146.240
2022-12-15T11:14:00.715Z,1042.560
2022-12-15T11:15:00.718Z,967.680
2022-12-15T11:16:00.743Z,910.080
2022-12-15T11:17:00.719Z,864.000
2022-12-15T11:18:00.847Z,789.120
2022-12-15T11:19:00.710Z,760.320
2022-12-15T11:20:03.049Z,743.040
2022-12-15T11:21:00.912Z,725.760
2022-12-15T11:22:00.773Z,711.360
2022-12-15T11:23:00.700Z,699.840
2022-12-15T11:24:00.861Z,694.080
2022-12-15T11:25:00.745Z,691.200
2022-12-15T11:26:06.705Z,691.200
2022-12-15T11:27:00.789Z,699.840
2022-12-15T11:28:00.710Z,711.360
2022-12-15T11:29:00.692Z,722.880
2022-12-15T11:30:00.871Z,734.400
2022-12-15T11:31:00.683Z,743.040
2022-12-15T11:32:06.776Z,748.800
2022-12-15T11:33:00.809Z,743.040
2022-12-15T11:34:00.687Z,737.280
2022-12-15T11:35:00.711Z,725.760
2022-12-15T11:36:00.891Z,720.000
2022-12-15T11:37:00.880Z,720.000
2022-12-15T11:38:00.894Z,731.520
2022-12-15T11:39:00.862Z,760.320
2022-12-15T11:40:00.765Z,812.160
2022-12-15T11:41:00.715Z,852.480
2022-12-15T11:42:00.865Z,898.560
2022-12-15T11:43:00.718Z,990.720
2022-12-15T11:44:04.319Z,1353.600
2022-12-15T11:45:00.745Z,1244.160
2022-12-15T11:46:00.752Z,1255.680
2022-12-15T11:47:00.721Z,1301.760
2022-12-15T11:48:00.833Z,1319.040
2022-12-15T11:49:00.718Z,1353.600
2022-12-15T11:50:00.692Z,1376.640
2022-12-15T11:51:00.726Z,1405.440
2022-12-15T11:52:00.711Z,1422.720
2022-12-15T11:53:00.923Z,1445.760
2022-12-15T11:54:00.880Z,1463.040
2022-12-15T11:55:00.762Z,1486.080
2022-12-15T11:56:00.781Z,1486.080
2022-12-15T11:57:00.718Z,1474.560
2022-12-15T11:58:00.826Z,1445.760
2022-12-15T11:59:00.722Z,1388.160
2022-12-15T12:00:01.066Z,1307.520
2022-12-15T12:01:00.766Z,1215.360
2022-12-15T12:03:00.887Z,1071.360
2022-12-15T12:04:00.815Z,1019.520
2022-12-15T12:05:00.699Z,990.720
2022-12-15T12:06:01.155Z,973.440
2022-12-15T12:07:00.685Z,956.160
2022-12-15T12:08:01.004Z,927.360
2022-12-15T12:09:00.750Z,881.280
2022-12-15T12:10:00.739Z,840.960
2022-12-15T12:11:00.746Z,743.040
2022-12-15T12:12:00.807Z,691.200
2022-12-15T12:13:00.812Z,639.360